Time;durP1;ratioP1;P1;durP2;ratioP2;P2;SDS_P1;SDS_P2;PMS_P1;PMS_P2;Temp;Humidity;BMP_temperature;BMP_pressure;BME280_temperature;BME280_humidity;BME280_pressure;Samples;Min_cycle;Max_cycle;Signal;HPM_P1;HPM_P2
2023/05/20 00:02:32;;;;;;;5.28;3.10;;;;;;;9.81;100.00;102068.88;10525693;28;20070;-86
2023/05/20 00:07:33;;;;;;;6.45;2.25;;;;;;;9.84;100.00;102056.94;10507656;28;20036;-87
2023/05/20 00:12:34;;;;;;;4.95;2.15;;;;;;;9.77;100.00;102072.06;10525806;28;20059;-87
2023/05/20 00:17:34;;;;;;;4.20;2.17;;;;;;;9.80;100.00;102062.75;10507238;28;20036;-86
2023/05/20 00:22:35;;;;;;;5.28;2.33;;;;;;;9.73;100.00;102070.97;10524827;28;20040;-87
2023/05/20 00:27:35;;;;;;;3.45;2.10;;;;;;;9.64;100.00;102071.22;10524513;28;20085;-87
2023/05/20 00:32:36;;;;;;;6.15;2.25;;;;;;;9.58;100.00;102073.41;10523316;28;20066;-86
2023/05/20 00:37:36;;;;;;;4.85;2.28;;;;;;;9.50;100.00;102072.88;10523367;28;20115;-87
2023/05/20 00:42:37;;;;;;;6.13;2.10;;;;;;;9.32;100.00;102080.28;10523182;28;20118;-86
2023/05/20 00:47:37;;;;;;;8.55;3.83;;;;;;;9.28;100.00;102074.72;10490256;28;20132;-82
2023/05/20 00:52:38;;;;;;;4.70;2.95;;;;;;;9.15;100.00;102079.06;10512067;28;20051;-84
2023/05/20 00:57:38;;;;;;;6.30;2.20;;;;;;;9.09;100.00;102078.63;10514350;28;20032;-85
2023/05/20 01:02:39;;;;;;;7.03;4.00;;;;;;;9.07;100.00;102065.44;10514811;28;20055;-85
2023/05/20 01:07:39;;;;;;;9.05;2.88;;;;;;;9.02;100.00;102064.19;10529857;28;20036;-85
2023/05/20 01:12:53;;;;;;;4.63;2.35;;;;;;;8.81;100.00;102061.81;10513571;28;20044;-85
2023/05/20 01:18:00;;;;;;;5.80;3.75;;;;;;;8.63;100.00;102061.38;10529928;28;20427;-85
2023/05/20 01:23:00;;;;;;;8.45;3.28;;;;;;;8.76;100.00;102067.50;10514663;28;20039;-84
2023/05/20 01:28:01;;;;;;;11.13;2.80;;;;;;;8.70;100.00;102065.34;10528375;28;20032;-84
2023/05/20 01:33:05;;;;;;;5.53;3.20;;;;;;;8.47;100.00;102060.97;10513206;28;20510;-85
2023/05/20 01:38:06;;;;;;;4.55;2.85;;;;;;;8.34;100.00;102067.88;10488540;28;20082;-85
2023/05/20 01:43:06;;;;;;;6.70;2.58;;;;;;;8.33;100.00;102065.13;10488423;28;20068;-84
2023/05/20 01:48:11;;;;;;;6.32;3.28;;;;;;;8.29;100.00;102065.69;10528924;28;20115;-84
2023/05/20 01:53:12;;;;;;;6.50;3.17;;;;;;;8.09;100.00;102054.66;10507429;28;20039;-85
2023/05/20 01:58:12;;;;;;;5.25;2.45;;;;;;;8.05;100.00;102053.53;10529088;28;20123;-85
2023/05/20 02:03:13;;;;;;;5.68;2.80;;;;;;;7.97;100.00;102054.63;10522611;28;20120;-85
2023/05/20 02:08:13;;;;;;;6.70;3.58;;;;;;;7.97;100.00;102045.88;10529850;28;20475;-85
2023/05/20 02:13:14;;;;;;;4.63;2.63;;;;;;;7.89;100.00;102043.59;10527603;28;20119;-85
2023/05/20 02:18:17;;;;;;;7.18;3.08;;;;;;;7.96;100.00;102044.06;10511635;28;20128;-85
2023/05/20 02:23:18;;;;;;;5.43;3.85;;;;;;;7.88;100.00;102053.91;10510634;28;20036;-84
2023/05/20 02:28:18;;;;;;;7.68;3.88;;;;;;;7.83;100.00;102050.94;10527350;28;20126;-85
2023/05/20 02:33:19;;;;;;;9.82;3.83;;;;;;;7.82;100.00;102054.34;10528825;28;20042;-84
2023/05/20 02:38:19;;;;;;;7.65;3.70;;;;;;;7.76;100.00;102040.81;10485573;28;20059;-85
2023/05/20 02:43:19;;;;;;;6.78;3.22;;;;;;;7.81;100.00;102039.47;10469067;28;20123;-80
2023/05/20 02:48:20;;;;;;;6.80;3.67;;;;;;;7.72;100.00;102046.59;10528499;28;20036;-84
2023/05/20 02:53:21;;;;;;;8.43;4.50;;;;;;;7.72;100.00;102039.69;10528353;28;20076;-86
2023/05/20 02:58:25;;;;;;;7.28;3.38;;;;;;;7.68;100.00;102036.72;10526228;28;20044;-86
2023/05/20 03:03:28;;;;;;;6.53;3.22;;;;;;;7.58;100.00;102041.19;10527042;28;20115;-86
2023/05/20 03:08:29;;;;;;;9.07;3.65;;;;;;;7.55;100.00;102042.69;10507178;28;20115;-86
2023/05/20 03:13:30;;;;;;;5.80;3.78;;;;;;;7.53;100.00;102041.66;10524874;28;20044;-85
2023/05/20 03:18:30;;;;;;;7.90;3.72;;;;;;;7.54;100.00;102044.34;10525524;28;20067;-85
2023/05/20 03:23:31;;;;;;;8.07;4.53;;;;;;;7.54;100.00;102041.75;10508817;28;20086;-86
2023/05/20 03:28:31;;;;;;;8.43;4.35;;;;;;;7.38;100.00;102041.31;10524467;28;20040;-86
2023/05/20 03:33:33;;;;;;;9.48;4.70;;;;;;;7.43;100.00;102040.91;10491698;28;20431;-86
2023/05/20 03:38:34;;;;;;;14.18;4.82;;;;;;;7.37;100.00;102040.44;10507633;28;20040;-85
2023/05/20 03:43:35;;;;;;;7.57;3.53;;;;;;;7.23;100.00;102028.91;10526610;28;20119;-86
2023/05/20 03:48:35;;;;;;;7.65;4.40;;;;;;;7.20;100.00;102031.25;10525870;28;20562;-86
2023/05/20 03:53:36;;;;;;;7.30;4.25;;;;;;;7.16;100.00;102029.19;10525972;28;20123;-84
2023/05/20 03:58:37;;;;;;;7.30;4.00;;;;;;;7.20;100.00;102028.66;10524331;28;20040;-84
2023/05/20 04:03:38;;;;;;;8.13;5.40;;;;;;;7.17;100.00;102037.16;10524400;28;20043;-85
2023/05/20 04:08:38;;;;;;;8.05;3.80;;;;;;;7.19;100.00;102040.78;10524712;28;20040;-84
2023/05/20 04:13:39;;;;;;;9.20;4.47;;;;;;;7.22;100.00;102049.63;10525921;28;20041;-86
2023/05/20 04:18:39;;;;;;;11.13;5.22;;;;;;;7.46;100.00;102061.06;10525602;28;20182;-86
2023/05/20 04:23:40;;;;;;;7.53;4.00;;;;;;;7.52;100.00;102043.31;10524302;28;20510;-85
2023/05/20 04:28:40;;;;;;;4.82;3.83;;;;;;;7.63;100.00;102046.78;10514650;28;20077;-85
2023/05/20 04:33:42;;;;;;;6.70;4.43;;;;;;;7.68;100.00;102050.66;10531547;28;20127;-86
2023/05/20 04:38:43;;;;;;;7.90;4.28;;;;;;;7.82;100.00;102051.72;10522109;28;20040;-83
2023/05/20 04:43:44;;;;;;;9.87;5.20;;;;;;;8.42;100.00;102039.75;10512688;28;20092;-84
2023/05/20 04:48:46;;;;;;;8.02;3.75;;;;;;;8.84;100.00;102034.13;10532986;28;20479;-87
2023/05/20 04:53:49;;;;;;;6.32;3.67;;;;;;;9.15;100.00;102023.28;10514225;28;20428;-88
2023/05/20 04:58:50;;;;;;;12.38;3.22;;;;;;;9.29;100.00;102013.84;10531086;28;20043;-83
2023/05/20 05:03:51;;;;;;;14.10;4.35;;;;;;;9.52;100.00;102012.84;10513763;28;20090;-83
2023/05/20 05:08:51;;;;;;;7.78;3.72;;;;;;;9.78;100.00;102004.22;10512680;28;20064;-83
2023/05/20 05:13:52;;;;;;;10.45;5.25;;;;;;;10.26;100.00;101996.97;10513357;28;20052;-83
2023/05/20 05:18:52;;;;;;;7.22;3.13;;;;;;;10.99;100.00;101998.22;10482756;28;20120;-87
2023/05/20 05:23:53;;;;;;;5.15;3.83;;;;;;;12.06;100.00;101986.44;10523559;28;20040;-86
2023/05/20 05:28:53;;;;;;;8.55;4.20;;;;;;;13.32;100.00;101981.28;10512945;28;20036;-85
2023/05/20 05:33:54;;;;;;;4.95;3.17;;;;;;;14.24;100.00;101992.22;10511829;28;20123;-87
2023/05/20 05:38:55;;;;;;;14.48;3.92;;;;;;;15.05;100.00;102000.50;10529309;28;20494;-86
2023/05/20 05:43:56;;;;;;;8.45;3.38;;;;;;;16.21;100.00;101994.25;10529044;28;20115;-85
2023/05/20 05:48:57;;;;;;;6.40;3.33;;;;;;;16.91;100.00;101987.41;10529229;28;20051;-86
2023/05/20 05:53:58;;;;;;;8.23;2.63;;;;;;;17.74;100.00;101984.38;10527710;28;20048;-84
2023/05/20 05:58:58;;;;;;;6.93;3.33;;;;;;;18.51;98.46;101984.31;10487517;28;20044;-87
2023/05/20 06:03:59;;;;;;;10.07;3.27;;;;;;;19.18;87.56;101976.72;10503304;28;20044;-87
2023/05/20 06:09:00;;;;;;;8.27;3.07;;;;;;;19.69;81.35;101963.97;10527806;28;20403;-86
2023/05/20 06:14:00;;;;;;;7.20;3.83;;;;;;;20.05;75.47;101973.81;10529876;28;20127;-87
2023/05/20 06:19:02;;;;;;;7.90;3.30;;;;;;;20.02;73.76;101953.41;10511577;28;20031;-87
2023/05/20 06:24:02;;;;;;;10.65;3.25;;;;;;;20.80;68.43;101961.50;10529158;28;20047;-87
2023/05/20 06:29:03;;;;;;;9.40;3.33;;;;;;;20.95;65.39;101952.97;10510861;28;20046;-86
2023/05/20 06:34:03;;;;;;;6.67;4.10;;;;;;;20.91;60.30;101953.78;10528381;28;20032;-82
2023/05/20 06:39:10;;;;;;;6.10;3.37;;;;;;;20.56;64.24;101956.50;10521044;28;20036;-89
2023/05/20 06:44:10;;;;;;;6.75;2.85;;;;;;;21.14;64.96;101942.72;10526469;28;20438;-89
2023/05/20 06:49:11;;;;;;;5.87;3.03;;;;;;;22.28;57.35;101956.41;10526736;28;20042;-85
2023/05/20 06:54:11;;;;;;;6.07;3.40;;;;;;;22.35;54.49;101949.38;10526151;28;20046;-89
2023/05/20 06:59:12;;;;;;;7.17;3.50;;;;;;;22.16;54.38;101946.41;10525836;28;20123;-87
2023/05/20 07:04:12;;;;;;;5.83;3.80;;;;;;;22.03;53.66;101932.00;10526740;28;20502;-88
2023/05/20 07:09:13;;;;;;;4.30;2.93;;;;;;;22.51;57.81;101937.22;10525298;28;20089;-90
2023/05/20 07:14:13;;;;;;;8.20;3.50;;;;;;;22.73;53.78;101935.75;10525591;28;20566;-83
2023/05/20 07:19:14;;;;;;;5.70;2.70;;;;;;;23.16;52.56;101933.66;10506947;28;20131;-81
2023/05/20 07:24:15;;;;;;;7.50;2.90;;;;;;;23.29;50.79;101928.50;10525693;28;20169;-82
2023/05/20 07:29:15;;;;;;;5.68;2.88;;;;;;;23.71;54.03;101919.16;10525229;28;20036;-81
2023/05/20 07:34:16;;;;;;;3.17;2.70;;;;;;;24.40;48.33;101923.31;10507696;28;20083;-84
2023/05/20 07:39:16;;;;;;;7.10;4.30;;;;;;;24.21;47.16;101930.31;10524257;28;20562;-84
2023/05/20 07:44:17;;;;;;;6.83;3.57;;;;;;;24.45;47.59;101905.53;10525528;28;20115;-85
2023/05/20 07:49:18;;;;;;;3.78;2.83;;;;;;;23.92;46.47;101909.53;10507585;28;20040;-85
2023/05/20 07:54:18;;;;;;;6.97;2.33;;;;;;;24.04;45.99;101904.31;10524403;28;20536;-83
2023/05/20 07:59:19;;;;;;;4.83;3.27;;;;;;;24.08;45.45;101912.38;10524996;28;20143;-83
2023/05/20 08:04:19;;;;;;;6.93;3.07;;;;;;;23.98;47.05;101898.00;10522831;28;20050;-86
2023/05/20 08:09:20;;;;;;;5.83;3.20;;;;;;;24.39;48.54;101883.16;10525185;28;20036;-84
2023/05/20 08:14:21;;;;;;;5.70;2.97;;;;;;;24.00;48.51;101896.28;10523253;28;20079;-83
2023/05/20 08:19:21;;;;;;;7.83;3.10;;;;;;;24.42;47.85;101889.44;10525548;28;20547;-82
2023/05/20 08:24:22;;;;;;;6.97;3.87;;;;;;;24.97;46.77;101889.72;10506231;28;20067;-81
2023/05/20 08:29:22;;;;;;;8.77;3.40;;;;;;;24.89;46.98;101877.22;10524389;28;20059;-84
2023/05/20 08:34:23;;;;;;;7.93;3.10;;;;;;;25.32;43.55;101872.88;10506924;28;20440;-84
2023/05/20 08:39:24;;;;;;;6.37;2.80;;;;;;;25.27;43.30;101875.56;10525095;28;20609;-82
2023/05/20 08:44:25;;;;;;;4.72;2.95;;;;;;;25.83;46.35;101883.69;10522920;28;20040;-83
2023/05/20 08:49:25;;;;;;;7.80;3.37;;;;;;;24.69;45.53;101863.72;10505260;28;20028;-84
2023/05/20 08:54:32;;;;;;;3.30;2.43;;;;;;;21.75;50.97;101864.91;10506744;28;20052;-84
2023/05/20 08:59:32;;;;;;;5.93;3.22;;;;;;;20.37;57.73;101863.00;10506625;28;20051;-84
2023/05/20 09:04:33;;;;;;;4.60;2.80;;;;;;;22.89;52.50;101848.81;10512581;28;20079;-83
2023/05/20 09:09:34;;;;;;;7.70;3.37;;;;;;;24.95;46.49;101843.31;10482862;28;20557;-81
2023/05/20 09:14:34;;;;;;;8.73;3.83;;;;;;;24.83;47.26;101850.41;10471896;28;20044;-83
2023/05/20 09:19:35;;;;;;;4.43;2.97;;;;;;;23.95;47.86;101857.88;10489450;28;20346;-84
2023/05/20 09:24:35;;;;;;;5.10;3.20;;;;;;;23.62;48.50;101841.56;10445632;28;20130;-81
2023/05/20 09:29:36;;;;;;;4.27;2.67;;;;;;;21.64;51.83;101859.38;10497968;28;20052;-83
2023/05/20 09:34:37;;;;;;;8.57;2.97;;;;;;;21.45;54.92;101843.91;10489241;28;20043;-85
2023/05/20 09:39:58;;;;;;;10.80;3.15;;;;;;;22.32;53.02;101840.00;10488957;28;21115;-86
2023/05/20 09:44:58;;;;;;;6.37;2.93;;;;;;;22.63;50.72;101846.72;10487458;28;20438;-85
2023/05/20 09:49:59;;;;;;;13.40;3.10;;;;;;;23.31;53.40;101846.63;10471066;28;20069;-87
2023/05/20 09:55:01;;;;;;;6.10;2.53;;;;;;;25.29;47.43;101838.97;10470030;28;20443;-81
2023/05/20 10:00:04;;;;;;;5.25;3.05;;;;;;;26.30;43.52;101816.63;10486571;28;20056;-83
2023/05/20 10:05:06;;;;;;;5.28;3.03;;;;;;;24.18;46.14;101845.63;10487836;28;20041;-80
2023/05/20 10:10:32;;;;;;;4.40;3.17;;;;;;;23.60;49.27;101836.22;10468300;28;20506;-82
2023/05/20 10:15:43;;;;;;;9.13;3.80;;;;;;;24.42;45.43;101825.25;10492739;28;20043;-82
2023/05/20 10:20:47;;;;;;;5.68;3.58;;;;;;;22.43;51.08;101812.63;10525480;28;20391;-85
2023/05/20 10:25:54;;;;;;;10.57;3.97;;;;;;;22.46;52.10;101805.59;10508568;28;20040;-82
2023/05/20 10:30:56;;;;;;;6.82;3.90;;;;;;;22.57;54.48;101801.28;10510941;28;20040;-84
2023/05/20 10:35:59;;;;;;;6.70;3.95;;;;;;;24.80;51.49;101804.03;10524148;28;20531;-84
2023/05/20 10:41:25;;;;;;;6.40;4.50;;;;;;;25.47;48.64;101810.44;10526616;28;20036;-83
2023/05/20 10:46:25;;;;;;;7.38;4.55;;;;;;;24.73;48.62;101801.31;10514681;28;20043;-84
2023/05/20 10:51:27;;;;;;;6.43;4.60;;;;;;;25.41;48.02;101797.88;10509303;28;20494;-85
2023/05/20 10:56:28;;;;;;;8.48;4.88;;;;;;;25.35;45.31;101820.22;10525951;28;20422;-83
2023/05/20 11:01:28;;;;;;;7.53;4.10;;;;;;;25.20;44.73;101799.63;10509970;28;20103;-81
2023/05/20 11:06:29;;;;;;;4.30;3.27;;;;;;;25.91;47.76;101797.88;10526591;28;20074;-82
2023/05/20 11:11:29;;;;;;;10.77;4.30;;;;;;;24.62;48.22;101806.59;10508360;28;20058;-87
2023/05/20 11:16:30;;;;;;;10.23;5.17;;;;;;;24.32;47.58;101793.97;10508958;28;20127;-83
2023/05/20 11:21:30;;;;;;;11.70;5.37;;;;;;;23.43;49.07;101806.69;10523528;28;20487;-80
2023/05/20 11:26:32;;;;;;;7.83;4.97;;;;;;;24.54;52.83;101781.59;10525810;28;20597;-83
2023/05/20 11:31:32;;;;;;;10.60;5.15;;;;;;;25.77;45.89;101782.72;10523393;28;20039;-83
2023/05/20 11:36:33;;;;;;;8.40;5.60;;;;;;;25.03;46.29;101771.94;10507120;28;20048;-80
2023/05/20 11:41:34;;;;;;;13.80;6.23;;;;;;;25.41;44.64;101764.84;10524721;28;20040;-87
2023/05/20 11:46:39;;;;;;;10.15;4.72;;;;;;;24.40;49.95;101764.56;10523259;28;20040;-85
2023/05/20 11:51:40;;;;;;;6.93;3.70;;;;;;;23.00;55.66;101769.75;10490437;28;20094;-89
2023/05/20 11:56:40;;;;;;;9.23;5.20;;;;;;;23.85;52.51;101756.25;10508100;28;20139;-81
2023/05/20 12:01:41;;;;;;;10.83;5.90;;;;;;;24.20;50.38;101752.00;10507333;28;20547;-85
2023/05/20 12:06:42;;;;;;;9.23;6.72;;;;;;;25.07;50.09;101738.91;10525065;28;20036;-82
2023/05/20 12:11:44;;;;;;;10.17;6.00;;;;;;;24.97;47.83;101743.38;10525259;28;20104;-83
2023/05/20 12:16:44;;;;;;;7.13;5.93;;;;;;;25.58;46.30;101740.72;10525927;28;20120;-87
2023/05/20 12:21:46;;;;;;;10.10;5.17;;;;;;;24.21;49.38;101743.09;10523708;28;20039;-86
2023/05/20 12:26:46;;;;;;;11.95;7.13;;;;;;;23.20;54.66;101741.44;10506781;28;20043;-88
2023/05/20 12:31:47;;;;;;;10.87;6.30;;;;;;;24.75;50.78;101739.75;10524377;28;20059;-87
2023/05/20 12:36:47;;;;;;;9.80;5.40;;;;;;;24.60;51.02;101736.13;10523020;28;20063;-84
2023/05/20 12:41:48;;;;;;;8.30;5.33;;;;;;;25.16;47.99;101741.59;10524622;28;20044;-82
2023/05/20 12:46:48;;;;;;;14.40;6.13;;;;;;;25.07;47.62;101746.94;10529837;28;20123;-82
2023/05/20 12:51:49;;;;;;;7.40;5.07;;;;;;;23.99;53.19;101716.25;10533452;28;20119;-85
2023/05/20 12:56:49;;;;;;;8.07;5.10;;;;;;;24.19;51.22;101727.06;10532244;28;20032;-82
2023/05/20 13:01:50;;;;;;;8.93;4.60;;;;;;;23.48;51.64;101731.94;10531075;28;20115;-87
2023/05/20 13:06:50;;;;;;;5.73;4.13;;;;;;;23.31;53.30;101729.13;10533161;28;20124;-91
2023/05/20 13:11:50;;;;;;;11.83;4.40;;;;;;;23.30;56.45;101722.91;10513098;28;20158;-87
2023/05/20 13:16:53;;;;;;;7.30;4.63;;;;;;;23.26;57.27;101728.19;10532057;28;20539;-87
2023/05/20 13:21:54;;;;;;;10.93;5.93;;;;;;;23.23;55.48;101718.38;10531704;28;20383;-86
2023/05/20 13:26:54;;;;;;;10.97;5.63;;;;;;;23.02;55.88;101722.63;10529975;28;20068;-86
2023/05/20 13:31:55;;;;;;;11.63;4.73;;;;;;;22.64;55.22;101724.88;10529571;28;20688;-88
2023/05/20 13:36:55;;;;;;;9.13;4.70;;;;;;;23.19;57.19;101711.19;10510347;28;20040;-82
2023/05/20 13:41:57;;;;;;;6.33;5.00;;;;;;;23.88;57.89;101713.50;10531708;28;20127;-83
2023/05/20 13:46:57;;;;;;;7.20;5.05;;;;;;;22.96;54.93;101717.22;10529099;28;20085;-80
2023/05/20 13:51:58;;;;;;;6.93;4.60;;;;;;;23.92;54.40;101703.72;10530048;28;20047;-81
2023/05/20 13:57:00;;;;;;;11.93;5.60;;;;;;;24.19;53.83;101710.09;10530568;28;20052;-83
2023/05/20 14:02:00;;;;;;;;;;;;;;;23.32;54.86;101696.19;10512913;28;20111;-82
2023/05/20 14:07:01;;;;;;;12.05;5.20;;;;;;;23.50;58.50;101694.53;10529966;28;20006;-83
2023/05/20 14:12:01;;;;;;;7.47;5.73;;;;;;;23.36;53.59;101678.44;10511159;28;20044;-82
2023/05/20 14:17:02;;;;;;;6.40;5.70;;;;;;;22.81;56.20;101669.03;10511999;28;20486;-82
2023/05/20 14:22:03;;;;;;;10.63;6.17;;;;;;;21.67;60.93;101667.66;10528097;28;20036;-83
2023/05/20 14:27:03;;;;;;;7.07;5.37;;;;;;;21.01;63.28;101664.81;10527830;28;20109;-86
2023/05/20 14:32:04;;;;;;;6.83;5.63;;;;;;;21.08;69.92;101658.72;10527752;28;20036;-85
2023/05/20 14:37:08;;;;;;;7.67;6.07;;;;;;;22.37;62.95;101635.63;10485534;28;20074;-86
2023/05/20 14:42:09;;;;;;;8.05;4.63;;;;;;;22.34;60.22;101639.19;10469061;28;20043;-84
2023/05/20 14:47:09;;;;;;;6.17;5.37;;;;;;;21.45;68.22;101645.13;10486391;28;20499;-81
2023/05/20 14:52:10;;;;;;;6.60;4.93;;;;;;;21.31;67.31;101636.03;10485027;28;20078;-85
2023/05/20 14:57:11;;;;;;;11.13;6.23;;;;;;;21.61;63.27;101624.03;10467964;28;20132;-82
2023/05/20 15:02:11;;;;;;;5.03;3.90;;;;;;;21.71;65.71;101626.84;10467523;28;20032;-82
2023/05/20 15:07:13;;;;;;;15.43;5.10;;;;;;;22.04;62.31;101626.38;10501502;28;20139;-85
2023/05/20 15:12:13;;;;;;;5.47;3.85;;;;;;;22.23;59.20;101627.50;10525408;28;20043;-86
2023/05/20 15:17:14;;;;;;;7.40;3.70;;;;;;;21.80;61.50;101620.78;10524711;28;20387;-85
2023/05/20 15:22:15;;;;;;;11.40;3.90;;;;;;;21.79;63.32;101618.97;10521486;28;20071;-83
2023/05/20 15:27:15;;;;;;;4.47;3.20;;;;;;;21.59;61.97;101618.66;10490236;28;20032;-86
2023/05/20 15:32:16;;;;;;;3.97;2.57;;;;;;;21.17;66.71;101623.41;10507211;28;20123;-83
2023/05/20 15:37:16;;;;;;;7.23;2.70;;;;;;;20.69;65.84;101626.13;10524651;28;20130;-84
2023/05/20 15:42:17;;;;;;;3.93;2.77;;;;;;;20.21;70.79;101619.88;10508273;28;20120;-83
2023/05/20 15:47:18;;;;;;;6.97;3.40;;;;;;;19.92;70.31;101619.31;10524850;28;20454;-83
2023/05/20 15:52:18;;;;;;;4.38;2.90;;;;;;;19.64;75.66;101602.75;10524192;28;20115;-83
2023/05/20 15:57:19;;;;;;;3.75;2.70;;;;;;;19.47;80.09;101605.00;10524204;28;20487;-83
2023/05/20 16:02:19;;;;;;;5.50;3.53;;;;;;;19.34;77.07;101612.69;10525222;28;20032;-82
2023/05/20 16:07:20;;;;;;;5.00;2.72;;;;;;;19.26;82.81;101608.09;10523926;28;20122;-82
2023/05/20 16:12:21;;;;;;;19.20;4.40;;;;;;;19.09;78.86;101603.28;10525833;28;20119;-82
2023/05/20 16:17:21;;;;;;;3.97;2.73;;;;;;;19.00;81.43;101605.69;10525479;28;20048;-81
2023/05/20 16:22:22;;;;;;;5.20;2.70;;;;;;;18.90;78.68;101613.41;10532146;28;20112;-88
2023/05/20 16:27:22;;;;;;;5.45;2.22;;;;;;;18.85;76.29;101611.47;10533108;28;20042;-82
2023/05/20 16:32:23;;;;;;;6.53;2.35;;;;;;;18.88;78.81;101617.75;10533706;28;20036;-82
2023/05/20 16:37:23;;;;;;;3.97;2.67;;;;;;;18.99;77.60;101622.47;10534711;28;20491;-81
2023/05/20 16:42:24;;;;;;;2.75;2.03;;;;;;;18.87;81.30;101604.44;10533568;28;20073;-82
2023/05/20 16:47:24;;;;;;;3.63;2.38;;;;;;;18.80;79.66;101614.03;10532873;28;20528;-82
2023/05/20 16:52:25;;;;;;;5.15;1.83;;;;;;;18.65;81.17;101611.84;10533355;28;20051;-86
2023/05/20 16:57:25;;;;;;;4.80;2.22;;;;;;;18.48;85.13;101614.94;10533191;28;20032;-85
2023/05/20 17:02:26;;;;;;;5.28;2.30;;;;;;;18.33;93.00;101615.44;10531918;28;20040;-82
2023/05/20 17:07:26;;;;;;;3.78;2.65;;;;;;;18.40;89.16;101635.06;10495154;28;20099;-81
2023/05/20 17:12:27;;;;;;;5.75;4.70;;;;;;;18.15;88.53;101639.66;10489201;28;20042;-82
2023/05/20 17:17:27;;;;;;;9.43;3.08;;;;;;;17.95;93.15;101643.44;10503417;28;20153;-86
2023/05/20 17:22:28;;;;;;;4.32;2.35;;;;;;;17.80;99.97;101642.13;10530886;28;20114;-81
2023/05/20 17:27:28;;;;;;;4.75;2.90;;;;;;;17.68;100.00;101642.66;10529955;28;20527;-81
2023/05/20 17:32:29;;;;;;;6.03;2.58;;;;;;;17.62;100.00;101637.19;10510785;28;20118;-81
2023/05/20 17:37:30;;;;;;;4.80;3.15;;;;;;;17.55;100.00;101643.13;10528873;28;20063;-80
2023/05/20 17:42:31;;;;;;;3.28;2.33;;;;;;;17.61;100.00;101643.34;10511305;28;20056;-81
2023/05/20 17:47:31;;;;;;;3.53;1.93;;;;;;;17.59;100.00;101635.31;10529974;28;20444;-82
2023/05/20 17:52:32;;;;;;;5.78;2.80;;;;;;;17.60;100.00;101636.25;10527759;28;20130;-82
2023/05/20 17:57:33;;;;;;;4.72;2.90;;;;;;;17.54;100.00;101633.41;10530112;28;20489;-82
2023/05/20 18:02:33;;;;;;;5.35;3.20;;;;;;;17.37;100.00;101632.84;10512740;28;20062;-82
2023/05/20 18:07:34;;;;;;;5.05;2.90;;;;;;;17.30;100.00;101635.31;10510913;28;20471;-82
2023/05/20 18:12:35;;;;;;;6.73;2.80;;;;;;;17.20;100.00;101642.91;10527999;28;20424;-81
2023/05/20 18:17:35;;;;;;;5.53;2.58;;;;;;;17.06;100.00;101651.28;10529538;28;20134;-82
2023/05/20 18:22:36;;;;;;;3.50;2.80;;;;;;;17.01;100.00;101645.81;10526080;28;20177;-83
2023/05/20 18:27:37;;;;;;;6.05;2.60;;;;;;;16.94;100.00;101649.06;10493080;28;20402;-83
2023/05/20 18:32:38;;;;;;;4.43;2.80;;;;;;;16.88;100.00;101647.13;10527620;28;20034;-84
2023/05/20 18:37:38;;;;;;;5.10;3.17;;;;;;;16.80;100.00;101648.63;10526325;28;20040;-83
2023/05/20 18:42:39;;;;;;;6.57;3.25;;;;;;;16.72;100.00;101645.69;10490938;28;20135;-83
2023/05/20 18:47:40;;;;;;;5.97;3.75;;;;;;;16.66;100.00;101652.53;10527345;28;20458;-82
2023/05/20 18:52:41;;;;;;;4.70;2.30;;;;;;;16.58;100.00;101658.44;10526542;28;20119;-83
2023/05/20 18:57:41;;;;;;;4.85;3.30;;;;;;;16.42;100.00;101661.38;10526617;28;20518;-83
2023/05/20 19:02:41;;;;;;;4.93;3.03;;;;;;;16.34;100.00;101660.19;10526529;28;20063;-82
2023/05/20 19:07:42;;;;;;;5.63;3.42;;;;;;;16.28;100.00;101660.84;10526922;28;20093;-82
2023/05/20 19:12:42;;;;;;;6.07;3.10;;;;;;;16.20;100.00;101665.88;10526315;28;20032;-83
2023/05/20 19:17:43;;;;;;;5.88;2.95;;;;;;;16.17;100.00;101668.41;10525350;28;20177;-82
2023/05/20 19:22:43;;;;;;;6.47;4.25;;;;;;;16.07;100.00;101668.91;10525688;28;20066;-81
2023/05/20 19:27:44;;;;;;;5.53;3.00;;;;;;;16.03;100.00;101670.50;10526603;28;20225;-83
2023/05/20 19:32:45;;;;;;;7.75;3.78;;;;;;;15.95;100.00;101671.94;10507904;28;20047;-83
2023/05/20 19:37:45;;;;;;;6.13;3.60;;;;;;;15.99;100.00;101663.31;10524301;28;20115;-82
2023/05/20 19:42:46;;;;;;;6.78;4.03;;;;;;;15.88;100.00;101660.28;10507768;28;20036;-82
2023/05/20 19:47:46;;;;;;;6.47;4.20;;;;;;;15.73;100.00;101665.81;10525230;28;20070;-82
2023/05/20 19:52:47;;;;;;;3.90;2.75;;;;;;;15.69;100.00;101662.16;10523413;28;20029;-82
2023/05/20 19:57:52;;;;;;;4.47;2.88;;;;;;;15.59;100.00;101667.00;10507173;28;20090;-82
2023/05/20 20:02:52;;;;;;;4.28;2.92;;;;;;;15.49;100.00;101671.03;10525177;28;20048;-82
2023/05/20 20:07:53;;;;;;;12.05;4.55;;;;;;;15.40;100.00;101664.53;10507216;28;20169;-82
2023/05/20 20:12:53;;;;;;;6.50;4.03;;;;;;;15.32;100.00;101676.50;10525372;28;20127;-82
2023/05/20 20:17:54;;;;;;;4.78;2.97;;;;;;;15.30;100.00;101672.00;10525935;28;20539;-81
2023/05/20 20:22:56;;;;;;;5.95;2.88;;;;;;;15.20;100.00;101678.63;10505382;28;20106;-82
2023/05/20 20:27:56;;;;;;;5.70;3.50;;;;;;;15.01;100.00;101671.69;10521891;28;20072;-82
2023/05/20 20:32:57;;;;;;;7.82;3.67;;;;;;;14.88;100.00;101673.78;10502278;28;20169;-81
2023/05/20 20:37:57;;;;;;;9.07;4.60;;;;;;;14.96;100.00;101667.13;10521270;28;20040;-81
2023/05/20 20:42:58;;;;;;;7.68;3.92;;;;;;;14.89;100.00;101672.06;10506148;28;20059;-81
2023/05/20 20:48:04;;;;;;;5.38;3.65;;;;;;;14.77;100.00;101664.53;10479848;28;20387;-81
2023/05/20 20:53:04;;;;;;;6.60;4.05;;;;;;;14.61;100.00;101668.22;10505691;28;20487;-81
2023/05/20 20:58:05;;;;;;;5.70;3.55;;;;;;;14.32;100.00;101655.53;10525247;28;20048;-81
2023/05/20 21:03:09;;;;;;;6.03;4.00;;;;;;;13.96;100.00;101658.28;10525392;28;20067;-81
2023/05/20 21:08:11;;;;;;;5.50;3.63;;;;;;;13.51;100.00;101657.09;10511902;28;20036;-81
2023/05/20 21:13:12;;;;;;;6.82;3.92;;;;;;;13.11;100.00;101649.84;10531969;28;20040;-81
2023/05/20 21:18:16;;;;;;;6.47;3.55;;;;;;;12.88;100.00;101654.84;10530210;28;20036;-81
2023/05/20 21:23:18;;;;;;;6.75;3.70;;;;;;;12.68;100.00;101661.72;10531619;28;20380;-81
2023/05/20 21:28:18;;;;;;;6.80;4.40;;;;;;;12.46;100.00;101664.94;10527688;28;20032;-79
2023/05/20 21:33:19;;;;;;;6.68;3.78;;;;;;;12.18;100.00;101658.22;10530095;28;20033;-79
2023/05/20 21:38:19;;;;;;;11.13;6.45;;;;;;;11.97;100.00;101658.81;10529391;28;20039;-81
2023/05/20 21:43:19;;;;;;;6.30;4.45;;;;;;;11.78;100.00;101656.00;10496556;28;20112;-81
2023/05/20 21:48:20;;;;;;;7.68;4.32;;;;;;;11.58;100.00;101667.19;10488877;28;20127;-81
2023/05/20 21:53:21;;;;;;;7.53;3.85;;;;;;;11.44;100.00;101665.50;10502764;28;20039;-80
2023/05/20 21:58:21;;;;;;;8.38;5.10;;;;;;;11.33;100.00;101662.25;10528779;28;20471;-80
2023/05/20 22:03:22;;;;;;;7.72;5.30;;;;;;;11.23;100.00;101652.97;10528378;28;20032;-80
2023/05/20 22:08:22;;;;;;;7.75;4.10;;;;;;;11.06;100.00;101651.09;10528976;28;20068;-78
2023/05/20 22:13:25;;;;;;;6.25;4.30;;;;;;;10.93;100.00;101666.09;10527802;28;20051;-81
2023/05/20 22:18:25;;;;;;;10.88;5.20;;;;;;;10.82;100.00;101657.59;10509626;28;20395;-80
2023/05/20 22:23:26;;;;;;;8.13;5.28;;;;;;;10.69;100.00;101663.84;10529104;28;20036;-80
2023/05/20 22:28:27;;;;;;;8.73;5.28;;;;;;;10.58;100.00;101663.16;10527308;28;20036;-80
2023/05/20 22:33:27;;;;;;;6.75;5.13;;;;;;;10.52;100.00;101654.06;10526430;28;20032;-80
2023/05/20 22:38:29;;;;;;;7.68;5.53;;;;;;;10.39;100.00;101650.69;10528258;28;20046;-80
2023/05/20 22:43:30;;;;;;;8.18;6.10;;;;;;;10.32;100.00;101648.50;10494457;28;20452;-80
2023/05/20 22:48:30;;;;;;;10.75;6.57;;;;;;;10.24;100.00;101645.38;10526194;28;20036;-80
2023/05/20 22:53:31;;;;;;;10.13;6.80;;;;;;;10.17;100.00;101643.19;10528005;28;20122;-80
2023/05/20 22:58:34;;;;;;;10.85;7.20;;;;;;;10.09;100.00;101652.28;10528306;28;20082;-80